• Join FlightAware (Why Join?)
  • Login
  • US Flag 
12:30PM EST


 

Airport Tracker/Info


-or-


 

Live Flight TrackerFlight Track Log ✈ DAL1562 ✈ 13-Apr-2013 ✈ KPHL - KDTW

Flight Track Log - Related Links

Times and Time Zones

All times are in EDT time to prevent confusion due to time zone crossing. See the DAL1562 flight status page for this flight to view local times or setup timezone preferences in your user account.

Time Position Orientation Groundspeed Altitude Reporting Facility
EDT Latitude Longitude Course Direction KTS MPH feet Rate Location/Type
04:42PM 39.8614 -75.2703 258° West 142 163 800  Level FAA TRACON SMA TRACON (SMA)
04:43PM 39.8589 -75.2861 258° West 149 171 1,400 1,620 Climbing FAA TRACON SMA TRACON (SMA)
04:43PM 39.8542 -75.3131 257° West 201 231 1,900 1,920 Climbing FAA TRACON SMA TRACON (SMA)
04:43PM 39.8500 -75.3383 258° West 227 261 2,700 2,520 Climbing FAA TRACON SMA TRACON (SMA)
04:44PM 39.8453 -75.3642 257° West 237 273 3,600 3,480 Climbing FAA TRACON SMA TRACON (SMA)
04:44PM 39.8408 -75.3933 259° West 244 281 5,000 3,840 Climbing FAA TRACON SMA TRACON (SMA)
04:44PM 39.8378 -75.4261 263° West 262 302 6,100 4,080 Climbing FAA TRACON SMA TRACON (SMA)
04:45PM 39.8422 -75.4531 282° West 248 285 7,800 4,020 Climbing FAA TRACON SMA TRACON (SMA)
04:45PM 39.8522 -75.4794 296° West 222 255 8,800 2,880 Climbing FAA TRACON SMA TRACON (SMA)
04:45PM 39.8600 -75.5042 292° West 221 254 9,700 1,920 Climbing FAA TRACON SMA TRACON (SMA)
04:46PM 39.8686 -75.5281 295° West 231 266 10,100 600 Climbing FAA TRACON SMA TRACON (SMA)
04:46PM 39.8786 -75.5569 294° West 234 269 10,100  Level FAA TRACON SMA TRACON (SMA)
04:46PM 39.8883 -75.5856 294° West 266 306 10,100  Level FAA TRACON SMA TRACON (SMA)
04:47PM 39.8989 -75.6142 296° West 282 325 10,100 840 Level FAA TRACON SMA TRACON (SMA)
04:47PM 39.9106 -75.6503 293° West 305 351 10,700 1,920 Climbing FAA TRACON SMA TRACON (SMA)
04:47PM 39.9181 -75.6889 284° West 332 382 11,400 2,400 Climbing FAA TRACON SMA TRACON (SMA)
04:48PM 39.9169 -75.7258 268° West 333 383 12,300 2,460 Climbing FAA TRACON SMA TRACON (SMA)
04:48PM 39.9158 -75.7717 268° West 340 391 13,100 2,820 Climbing FAA TRACON SMA TRACON (SMA)
04:48PM 39.9150 -75.8117 268° West 345 397 14,200 3,120 Climbing FAA TRACON SMA TRACON (SMA)
04:49PM 39.9144 -75.8508 269° West 347 399 15,200 3,000 Climbing FAA TRACON SMA TRACON (SMA)
04:49PM 39.9139 -75.8897 269° West 349 402 16,200 2,820 Climbing FAA TRACON SMA TRACON (SMA)
04:49PM 39.9128 -75.9386 268° West 352 405 17,100 2,400 Climbing FAA TRACON SMA TRACON (SMA)
04:50PM 39.9117 -75.9778 268° West 352 405 17,800 1,320 Climbing FAA TRACON SMA TRACON (SMA)
04:50PM 39.9114 -75.9878 268° West 353 406 18,000 2,460 Climbing FAA TRACON SMA TRACON (SMA)
04:52PM 39.9097 -76.2811 270° West 363 418 23,500 2,040 Climbing New York Center
04:53PM 39.9139 -76.4111 272° West 363 418 24,000 240 Climbing New York Center
04:54PM 39.9203 -76.5392 274° West 363 418 24,100  Climbing New York Center
04:55PM 39.9264 -76.6667 274° West 368 423 24,100 -60 Level New York Center
04:56PM 39.9428 -76.7981 279° West 368 423 24,000  Descending New York Center
04:57PM 39.9678 -76.9222 285° West 368 423 24,100  Climbing New York Center
04:58PM 39.9903 -77.0461 283° West 363 418 24,000  Descending New York Center
04:59PM 40.0147 -77.1758 284° West 363 418 24,100  Climbing New York Center
05:00PM 40.0378 -77.2892 285° West 363 418 24,000  Descending New York Center
05:02PM 40.0831 -77.5467 283° West 374 430 24,100  Climbing Cleveland Center
05:03PM 40.1072 -77.6731 284° West 369 425 24,100  Level Cleveland Center
05:05PM 40.1344 -77.9353 278° West 358 412 24,100  Level Cleveland Center
05:06PM 40.1539 -78.0594 282° West 351 404 24,100 -240 Level Cleveland Center
05:07PM 40.1919 -78.1806 292° West 351 404 23,700 -960 Descending Cleveland Center
05:08PM 40.2297 -78.3014 292° West 361 415 22,200 -840 Descending Cleveland Center
05:09PM 40.2675 -78.4200 293° West 366 421 22,100 -120 Descending Cleveland Center
05:10PM 40.3053 -78.5386 293° West 366 421 22,000  Descending Cleveland Center
05:11PM 40.3408 -78.6600 291° West 366 421 22,100  Climbing Cleveland Center
05:12PM 40.3761 -78.7789 291° West 366 421 22,100 -60 Level Cleveland Center
05:13PM 40.4153 -78.8978 293° West 366 421 22,000 -60 Descending Cleveland Center
05:14PM 40.4503 -79.0142 292° West 361 415 22,000  Level Cleveland Center
05:15PM 40.4875 -79.1336 292° West 356 410 22,000  Level Cleveland Center
05:16PM 40.5244 -79.2556 292° West 356 410 22,100  Climbing Cleveland Center
05:17PM 40.5589 -79.3614 293° West 356 410 22,100  Level Cleveland Center
05:18PM 40.5956 -79.4811 292° West 351 404 22,100  Level Cleveland Center
05:19PM 40.6319 -79.6036 291° West 351 404 22,100 -60 Level Cleveland Center
05:20PM 40.6664 -79.7264 290° West 351 404 22,000  Descending Cleveland Center
05:21PM 40.7028 -79.8464 292° West 351 404 22,100  Climbing Cleveland Center
05:22PM 40.7389 -79.9667 292° West 351 404 22,000  Descending Cleveland Center
05:23PM 40.7769 -80.1033 290° West 351 404 22,100  Climbing Cleveland Center
05:24PM 40.8108 -80.2292 290° West 356 410 22,000  Descending Cleveland Center
05:25PM 40.8422 -80.3278 293° West 361 415 22,100  Climbing Cleveland Center
05:26PM 40.8864 -80.4761 292° West 361 415 22,100 -60 Level Cleveland Center
05:27PM 40.9219 -80.5997 291° West 361 415 22,000  Descending Cleveland Center
05:28PM 40.9592 -80.7289 291° West 371 427 22,100  Climbing Cleveland Center
05:29PM 40.9986 -80.8611 292° West 376 433 22,100 -60 Level Cleveland Center
05:30PM 41.0358 -80.9933 291° West 383 441 22,000  Descending Cleveland Center
05:31PM 41.0706 -81.1258 289° West 389 448 22,100  Climbing Cleveland Center
05:32PM 41.1056 -81.2472 291° West 389 448 22,100  Level Cleveland Center
05:33PM 41.1422 -81.3772 291° West 379 436 22,100 -60 Level Cleveland Center
05:34PM 41.1847 -81.5183 292° West 374 430 22,000  Descending Cleveland Center
05:35PM 41.2233 -81.6486 292° West 374 430 22,100  Climbing Cleveland Center
05:36PM 41.2575 -81.7819 289° West 374 430 22,000 -60 Descending Cleveland Center
05:37PM 41.2914 -81.9125 289° West 379 436 22,000  Level Cleveland Center
05:38PM 41.3272 -82.0486 289° West 384 442 22,100 -300 Climbing Cleveland Center
05:39PM 41.3692 -82.1794 293° West 390 449 21,400 -960 Descending Cleveland Center
05:40PM 41.4344 -82.2892 308° West 382 440 20,200 -1,020 Descending Cleveland Center
05:41PM 41.4933 -82.3906 308° West 382 440 19,400 -1,140 Descending Cleveland Center
05:42PM 41.5522 -82.4894 309° West 382 440 18,200 -2,040 Descending Cleveland Center
05:43PM 41.6231 -82.6053 309° West 369 425 15,400 -2,520 Descending Cleveland Center
05:44PM 41.6981 -82.7300 309° West 347 399 12,300 -1,680 Descending Cleveland Center
05:45PM 41.7444 -82.8039 310° West 351 404 12,100 -120 Descending Cleveland Center
05:46PM 41.8178 -82.8931 318° Northwest 346 398 12,100  Level Cleveland Center
05:47PM 41.9053 -82.9964 319° Northwest 352 405 12,100  Level Cleveland Center
05:48PM 41.9622 -83.0628 319° Northwest 346 398 12,100  Level Cleveland Center
05:49PM 42.0353 -83.1525 318° Northwest 351 404 12,100  Level Cleveland Center
05:50PM 42.1114 -83.2086 331° Northwest 342 394 12,100 -240 Level Cleveland Center
05:50PM 42.1483 -83.2186 349° North 280 322 11,800 -1,020 Descending FAA TRACON SMA TRACON (SMA)
05:51PM 42.1736 -83.2239 351° North 273 314 11,400 -1,500 Descending FAA TRACON SMA TRACON (SMA)
05:51PM 42.1983 -83.2261 356° North 276 318 10,800 -1,680 Descending FAA TRACON SMA TRACON (SMA)
05:51PM 42.2261 -83.2072 27° Northeast 300 345 10,300 -1,380 Descending FAA TRACON SMA TRACON (SMA)
05:52PM 42.2453 -83.1897 34° Northeast 298 343 9,900 -1,380 Descending FAA TRACON SMA TRACON (SMA)
05:52PM 42.2678 -83.1694 34° Northeast 293 337 9,400 -1,680 Descending FAA TRACON SMA TRACON (SMA)
05:52PM 42.2942 -83.1478 31° Northeast 290 334 8,800 -1,620 Descending FAA TRACON SMA TRACON (SMA)
05:53PM 42.3131 -83.1325 31° Northeast 287 330 8,300 -1,680 Descending FAA TRACON SMA TRACON (SMA)
05:53PM 42.3361 -83.1147 30° Northeast 285 328 7,700 -2,100 Descending FAA TRACON SMA TRACON (SMA)
05:53PM 42.3622 -83.0950 29° Northeast 282 325 7,000 -1,680 Descending FAA TRACON SMA TRACON (SMA)
05:54PM 42.3833 -83.0789 29° Northeast 282 325 6,600 -1,080 Descending FAA TRACON SMA TRACON (SMA)
05:54PM 42.4053 -83.0658 24° Northeast 287 330 6,300 -780 Descending FAA TRACON SMA TRACON (SMA)
05:54PM 42.4311 -83.0708 352° North 228 262 6,100 -1,080 Descending FAA TRACON SMA TRACON (SMA)
05:55PM 42.4431 -83.0903 310° West 223 257 5,600 -1,080 Descending FAA TRACON SMA TRACON (SMA)
05:55PM 42.4431 -83.1136 270° West 202 232 5,400 -600 Descending FAA TRACON SMA TRACON (SMA)
05:55PM 42.4408 -83.1411 264° West 187 215 5,200 -480 Descending FAA TRACON SMA TRACON (SMA)
05:56PM 42.4328 -83.1603 240° Southwest 186 214 5,100 -480 Descending FAA TRACON SMA TRACON (SMA)
05:56PM 42.4219 -83.1800 233° Southwest 171 197 4,900 -900 Descending FAA TRACON SMA TRACON (SMA)
05:56PM 42.4108 -83.1906 215° Southwest 177 204 4,500 -900 Descending FAA TRACON SMA TRACON (SMA)
05:57PM 42.3964 -83.2028 212° Southwest 166 191 4,300 -600 Descending FAA TRACON SMA TRACON (SMA)
05:57PM 42.3847 -83.2119 210° Southwest 167 192 4,100 -780 Descending FAA TRACON SMA TRACON (SMA)
05:57PM 42.3694 -83.2233 209° Southwest 175 201 3,800 -780 Descending FAA TRACON SMA TRACON (SMA)
05:58PM 42.3542 -83.2347 209° Southwest 174 200 3,600 -600 Descending FAA TRACON SMA TRACON (SMA)
05:58PM 42.3417 -83.2439 208° Southwest 170 196 3,400 -600 Descending FAA TRACON SMA TRACON (SMA)
05:58PM 42.3267 -83.2547 208° Southwest 173 199 3,200 -780 Descending FAA TRACON SMA TRACON (SMA)
05:59PM 42.3142 -83.2642 209° Southwest 177 204 2,900 -900 Descending FAA TRACON SMA TRACON (SMA)
05:59PM 42.2989 -83.2756 209° Southwest 175 201 2,600 -1,080 Descending FAA TRACON SMA TRACON (SMA)
05:59PM 42.2844 -83.2864 209° Southwest 160 184 2,200 -960 Descending FAA TRACON SMA TRACON (SMA)
06:00PM 42.2739 -83.2939 208° Southwest 141 162 2,000 -780 Descending FAA TRACON SMA TRACON (SMA)
06:00PM 42.2628 -83.3022 209° Southwest 132 152 1,700 -780 Descending FAA TRACON SMA TRACON (SMA)
06:00PM 42.2514 -83.3108 209° Southwest 133 153 1,500 -600 Descending FAA TRACON SMA TRACON (SMA)
06:01PM 42.2414 -83.3183 209° Southwest 134 154 1,300 -780 Descending FAA TRACON SMA TRACON (SMA)
06:01PM 42.2292 -83.3272 208° Southwest 139 160 1,000 -900 Descending FAA TRACON SMA TRACON (SMA)
06:01PM 42.2183 -83.3350 208° Southwest 142 163 700 -480 Descending FAA TRACON SMA TRACON (SMA)
06:02PM 42.2089 -83.3419 209° Southwest 110 127 700  Level FAA TRACON SMA TRACON (SMA)